Avery, Texas
Current Conditions -  °F | °C
As of 1:15 AM on Saturday 20 Dec 2014 (Local Time) from K4O4 Reporting Station
Overcast Overcast  
Wind Chill:   Ceiling: 1700
Heat Index:   Visibility: 5mi
Dew Point:   Wind: 3mph
Humidity: 93%   Direction: 70°ENE
Pressure: 30.21"   Gusts: NA
Location:  33.55°N, 94.78°W
Report Text: K4O4 200715Z AUTO 07003KT 5SM OVC017 06/05 A3021 RMK AO2
Loading
Personal Weather Stations






























Interactive Weather Map New forecast layout! Learn more

10-Day Weather Forecast

Advertisements
Track Severe Weather on mobile